createdAt,value
2022-10-01T00:00:08.619Z,24.95
2022-10-01T00:01:18.939Z,25.04
2022-10-01T00:02:21.228Z,25.09
2022-10-01T00:03:25.419Z,25.97
2022-10-01T00:04:28.518Z,25.20
2022-10-01T00:05:30.433Z,25.04
2022-10-01T00:06:33.975Z,27.12
2022-10-01T00:07:40.874Z,24.71
2022-10-01T00:08:45.424Z,26.14
2022-10-01T00:09:47.450Z,25.89
2022-10-01T00:10:49.446Z,26.31
2022-10-01T00:11:51.470Z,23.51
2022-10-01T00:12:54.334Z,24.97
2022-10-01T00:13:58.528Z,24.59
2022-10-01T00:15:05.523Z,25.66
2022-10-01T00:16:07.554Z,25.14
2022-10-01T00:17:10.867Z,24.57
2022-10-01T00:18:13.036Z,24.82
2022-10-01T00:19:14.946Z,25.17
2022-10-01T00:20:17.463Z,26.17
2022-10-01T00:21:22.936Z,25.63
2022-10-01T00:22:25.094Z,25.11
2022-10-01T00:23:26.980Z,22.41
2022-10-01T00:24:29.010Z,22.99
2022-10-01T00:25:30.935Z,22.17
2022-10-01T00:26:35.261Z,23.27
2022-10-01T00:27:37.414Z,24.24
2022-10-01T00:28:40.497Z,23.77
2022-10-01T00:29:42.728Z,24.67
2022-10-01T00:30:48.291Z,23.31
2022-10-01T00:31:50.465Z,24.93
2022-10-01T00:32:54.154Z,25.69
2022-10-01T00:34:03.687Z,24.19
2022-10-01T00:35:07.413Z,26.16
2022-10-01T00:36:11.148Z,26.80
2022-10-01T00:37:16.142Z,26.61
2022-10-01T00:38:18.095Z,25.24
2022-10-01T00:39:20.522Z,28.48
2022-10-01T00:40:22.636Z,27.46
2022-10-01T00:41:25.529Z,28.31
2022-10-01T00:42:27.547Z,27.60
2022-10-01T00:43:35.644Z,27.27
2022-10-01T00:44:37.800Z,28.66
2022-10-01T00:45:39.744Z,28.20
2022-10-01T00:46:44.525Z,27.46
2022-10-01T00:47:50.409Z,27.11
2022-10-01T00:48:58.646Z,25.76
2022-10-01T00:50:10.592Z,26.07
2022-10-01T00:51:13.067Z,25.89
2022-10-01T00:52:21.870Z,26.23
2022-10-01T00:53:25.033Z,29.00
2022-10-01T00:56:45.683Z,26.24
2022-10-01T00:57:47.743Z,28.16
2022-10-01T00:58:50.305Z,27.69
2022-10-01T00:59:56.090Z,25.59
2022-10-01T01:00:58.187Z,27.87
2022-10-01T01:02:00.582Z,28.08
2022-10-01T01:03:05.205Z,31.22
2022-10-01T01:04:07.604Z,29.13
2022-10-01T01:05:10.414Z,29.49
2022-10-01T01:06:12.813Z,29.63
2022-10-01T01:07:17.448Z,29.22
2022-10-01T01:08:19.963Z,28.54
2022-10-01T01:10:47.750Z,27.37
2022-10-01T01:11:56.549Z,25.52
2022-10-01T01:13:05.490Z,24.38
2022-10-01T01:14:20.347Z,24.76
2022-10-01T01:15:32.112Z,23.59
2022-10-01T01:16:41.388Z,25.29
2022-10-01T01:18:03.624Z,24.31
2022-10-01T01:19:12.224Z,24.58
2022-10-01T01:20:47.981Z,23.82
2022-10-01T01:21:53.702Z,22.98
2022-10-01T01:23:11.339Z,23.83
2022-10-01T01:24:40.213Z,23.95
2022-10-01T01:25:49.079Z,23.38
2022-10-01T01:27:09.871Z,23.94
2022-10-01T01:28:21.216Z,25.28
2022-10-01T01:29:39.404Z,22.06
2022-10-01T01:30:43.189Z,24.65
2022-10-01T01:31:46.522Z,22.96
2022-10-01T01:34:08.809Z,24.79
2022-10-01T01:35:29.956Z,24.13
2022-10-01T01:36:35.686Z,22.60
2022-10-01T01:37:41.475Z,24.75
2022-10-01T01:38:49.714Z,23.39
2022-10-01T01:39:55.130Z,23.31
2022-10-01T01:41:00.948Z,22.17
2022-10-01T01:42:06.755Z,22.38
2022-10-01T01:43:12.433Z,22.18
2022-10-01T01:44:16.830Z,21.39
2022-10-01T01:45:22.516Z,23.40
2022-10-01T01:46:27.728Z,21.92
2022-10-01T01:47:31.325Z,22.06
2022-10-01T01:48:34.808Z,21.42
2022-10-01T01:49:38.538Z,22.17
2022-10-01T01:50:47.192Z,21.99
2022-10-01T01:52:05.261Z,21.28
2022-10-01T01:53:07.505Z,22.88
2022-10-01T01:54:09.626Z,22.59
2022-10-01T01:55:11.814Z,21.94
2022-10-01T01:56:14.467Z,22.00
2022-10-01T01:57:18.502Z,23.13
2022-10-01T01:58:20.798Z,22.68
2022-10-01T01:59:24.541Z,21.81
2022-10-01T02:00:26.646Z,19.42
2022-10-01T02:01:43.196Z,20.64
2022-10-01T02:02:51.851Z,21.42
2022-10-01T02:03:54.049Z,20.44
2022-10-01T02:04:59.794Z,20.01
2022-10-01T02:06:20.665Z,19.08
2022-10-01T02:07:29.365Z,19.81
2022-10-01T02:08:35.270Z,19.79
2022-10-01T02:09:52.855Z,20.18
2022-10-01T02:11:10.771Z,20.49
2022-10-01T02:12:28.169Z,19.56
2022-10-01T02:13:49.422Z,20.25
2022-10-01T02:15:10.626Z,20.66
2022-10-01T02:16:32.424Z,20.04
2022-10-01T02:17:53.282Z,19.30
2022-10-01T02:19:11.274Z,20.27
2022-10-01T02:20:18.856Z,20.71
2022-10-01T02:21:24.603Z,20.39
2022-10-01T02:22:45.597Z,19.54
2022-10-01T02:24:00.330Z,21.89
2022-10-01T02:25:05.398Z,19.56
2022-10-01T02:26:11.439Z,20.12
2022-10-01T02:27:23.219Z,21.36
2022-10-01T02:28:25.511Z,20.57
2022-10-01T02:29:28.840Z,20.71
2022-10-01T02:30:32.935Z,21.44
2022-10-01T02:31:35.380Z,21.18
2022-10-01T02:32:40.663Z,21.08
2022-10-01T02:33:45.594Z,20.78
2022-10-01T02:34:49.366Z,21.34
2022-10-01T02:35:54.339Z,21.01
2022-10-01T02:36:59.698Z,22.73
2022-10-01T02:38:05.029Z,20.69
2022-10-01T02:39:09.719Z,20.11
2022-10-01T02:40:15.563Z,20.76
2022-10-01T02:41:21.348Z,22.07
2022-10-01T02:42:27.293Z,20.76
2022-10-01T02:43:39.485Z,22.49
2022-10-01T02:44:43.213Z,20.92
2022-10-01T02:45:48.882Z,22.17
2022-10-01T02:47:03.794Z,21.77
2022-10-01T02:48:09.311Z,20.36
2022-10-01T02:49:12.351Z,22.73
2022-10-01T02:50:14.891Z,21.91
2022-10-01T02:51:33.085Z,21.26
2022-10-01T02:52:51.395Z,22.94
2022-10-01T02:55:10.430Z,22.30
2022-10-01T02:56:13.175Z,21.25
2022-10-01T02:57:17.012Z,21.89
2022-10-01T02:58:19.655Z,22.09
2022-10-01T02:59:21.938Z,21.30
2022-10-01T03:00:24.435Z,21.33
2022-10-01T03:01:27.236Z,21.37
2022-10-01T03:02:31.153Z,20.85
2022-10-01T03:03:33.669Z,21.10
2022-10-01T03:04:35.556Z,19.39
2022-10-01T03:05:37.638Z,21.60
2022-10-01T03:06:39.617Z,19.49
2022-10-01T03:07:42.411Z,21.21
2022-10-01T03:08:44.442Z,18.81
2022-10-01T03:09:46.716Z,17.76
2022-10-01T03:10:48.717Z,20.34
2022-10-01T03:11:50.636Z,20.35
2022-10-01T03:12:52.857Z,19.28
2022-10-01T03:13:55.420Z,20.14
2022-10-01T03:14:57.435Z,19.21
2022-10-01T03:15:59.593Z,18.75
2022-10-01T03:17:01.883Z,19.68
2022-10-01T03:18:03.760Z,21.75
2022-10-01T03:19:05.881Z,18.40
2022-10-01T03:20:09.897Z,20.76
2022-10-01T03:21:11.973Z,21.71
2022-10-01T03:22:16.300Z,21.44
2022-10-01T03:23:18.229Z,21.30
2022-10-01T03:24:20.143Z,20.72
2022-10-01T03:25:22.027Z,21.39
2022-10-01T03:26:24.036Z,19.01
2022-10-01T03:27:26.112Z,19.06
2022-10-01T03:28:28.029Z,18.91
2022-10-01T03:29:30.145Z,17.22
2022-10-01T03:30:32.149Z,16.99
2022-10-01T03:31:34.437Z,16.31
2022-10-01T03:32:36.775Z,16.48
2022-10-01T03:33:38.756Z,16.34
2022-10-01T03:34:40.805Z,14.52
2022-10-01T03:35:42.697Z,14.35
2022-10-01T03:36:44.982Z,13.15
2022-10-01T03:37:46.866Z,13.51
2022-10-01T03:38:48.925Z,12.49
2022-10-01T03:39:50.939Z,13.29
2022-10-01T03:40:52.910Z,12.65
2022-10-01T03:41:54.903Z,12.21
2022-10-01T03:42:56.810Z,12.12
2022-10-01T03:44:00.611Z,12.62
2022-10-01T03:45:03.588Z,11.40
2022-10-01T03:46:05.779Z,11.65
2022-10-01T03:47:08.564Z,11.07
2022-10-01T03:48:10.615Z,10.64
2022-10-01T03:49:13.137Z,9.91
2022-10-01T03:50:15.942Z,10.33
2022-10-01T03:51:19.964Z,10.51
2022-10-01T03:52:21.963Z,11.09
2022-10-01T03:53:25.691Z,9.79
2022-10-01T03:54:27.731Z,8.79
2022-10-01T03:55:29.676Z,9.57
2022-10-01T03:56:32.354Z,9.88
2022-10-01T03:57:34.300Z,9.17
2022-10-01T03:58:36.241Z,8.45
2022-10-01T03:59:40.181Z,7.99
2022-10-01T04:00:44.623Z,8.58
2022-10-01T04:01:46.650Z,8.35
2022-10-01T04:02:48.906Z,8.84
2022-10-01T04:03:51.846Z,7.60
2022-10-01T04:04:53.751Z,8.42
2022-10-01T04:05:56.458Z,8.81
2022-10-01T04:06:58.543Z,8.22
2022-10-01T04:08:00.987Z,7.23
2022-10-01T04:09:03.545Z,8.35
2022-10-01T04:10:07.018Z,7.99
2022-10-01T04:11:09.344Z,8.29
2022-10-01T04:12:11.249Z,8.01
2022-10-01T04:13:14.248Z,8.06
2022-10-01T04:14:16.281Z,7.71
2022-10-01T04:15:18.225Z,7.76
2022-10-01T04:16:20.596Z,8.15
2022-10-01T04:17:22.623Z,7.78
2022-10-01T04:18:24.501Z,7.91
2022-10-01T04:19:26.511Z,6.98
2022-10-01T04:20:28.555Z,7.12
2022-10-01T04:21:30.848Z,7.13
2022-10-01T04:22:41.319Z,8.02
2022-10-01T04:23:43.267Z,7.38
2022-10-01T04:24:45.161Z,7.31
2022-10-01T04:25:47.098Z,7.87
2022-10-01T04:26:50.699Z,7.26
2022-10-01T04:27:56.240Z,6.66
2022-10-01T04:28:58.495Z,6.97
2022-10-01T04:30:00.406Z,7.06
2022-10-01T04:31:02.912Z,7.23
2022-10-01T04:32:04.863Z,7.49
2022-10-01T04:33:09.276Z,7.58
2022-10-01T04:34:11.293Z,8.10
2022-10-01T04:35:13.589Z,7.34
2022-10-01T04:36:16.080Z,6.48
2022-10-01T04:37:19.166Z,7.56
2022-10-01T04:38:21.065Z,7.03
2022-10-01T04:39:22.970Z,7.01
2022-10-01T04:40:25.269Z,7.35
2022-10-01T04:41:27.456Z,6.95
2022-10-01T04:42:29.395Z,7.34
2022-10-01T04:43:31.339Z,7.95
2022-10-01T04:44:33.233Z,8.55
2022-10-01T04:45:36.646Z,8.32
2022-10-01T04:46:38.816Z,8.32
2022-10-01T04:47:53.059Z,8.14
2022-10-01T04:48:55.059Z,7.97
2022-10-01T04:49:56.975Z,7.42
2022-10-01T04:50:59.049Z,7.95
2022-10-01T04:52:01.950Z,8.75
2022-10-01T04:53:04.908Z,8.61
2022-10-01T04:54:06.791Z,7.59
2022-10-01T04:55:09.102Z,8.17
2022-10-01T04:56:11.586Z,8.32
2022-10-01T04:57:13.553Z,8.17
2022-10-01T04:58:15.427Z,8.51
2022-10-01T04:59:17.721Z,9.00
2022-10-01T05:00:22.026Z,8.29
2022-10-01T05:01:24.132Z,9.52
2022-10-01T05:02:26.552Z,8.81
2022-10-01T05:03:28.825Z,8.69
2022-10-01T05:04:30.711Z,8.99
2022-10-01T05:05:32.606Z,9.79
2022-10-01T05:06:34.640Z,9.81
2022-10-01T05:07:38.595Z,10.69
2022-10-01T05:08:40.525Z,10.00
2022-10-01T05:09:42.537Z,9.31
2022-10-01T05:10:44.553Z,8.68
2022-10-01T05:11:46.515Z,9.42
2022-10-01T05:12:48.866Z,8.74
2022-10-01T05:13:50.973Z,8.88
2022-10-01T05:14:54.515Z,8.27
2022-10-01T05:15:57.161Z,8.63
2022-10-01T05:16:59.239Z,9.38
2022-10-01T05:18:01.181Z,8.97
2022-10-01T05:19:03.169Z,8.01
2022-10-01T05:20:07.353Z,8.35
2022-10-01T05:21:09.400Z,8.80
2022-10-01T05:22:11.487Z,8.52
2022-10-01T05:23:13.358Z,8.59
2022-10-01T05:24:15.373Z,10.99
2022-10-01T05:25:19.561Z,8.60
2022-10-01T05:26:21.718Z,8.35
2022-10-01T05:27:23.825Z,7.88
2022-10-01T05:28:25.978Z,7.93
2022-10-01T05:29:27.975Z,8.47
2022-10-01T05:30:30.511Z,8.02
2022-10-01T05:31:33.307Z,8.17
2022-10-01T05:32:36.958Z,7.52
2022-10-01T05:33:39.959Z,7.22
2022-10-01T05:34:41.885Z,8.03
2022-10-01T05:35:43.983Z,7.49
2022-10-01T05:36:47.438Z,7.81
2022-10-01T05:37:57.446Z,7.69
2022-10-01T05:38:59.370Z,7.10
2022-10-01T05:40:01.489Z,7.63
2022-10-01T05:41:04.163Z,6.91
2022-10-01T05:42:06.655Z,7.17
2022-10-01T05:43:08.746Z,7.23
2022-10-01T05:44:10.620Z,7.43
2022-10-01T05:45:12.700Z,7.32
2022-10-01T05:46:14.849Z,7.55
2022-10-01T05:47:17.406Z,6.80
2022-10-01T05:48:19.294Z,7.17
2022-10-01T05:49:22.921Z,7.21
2022-10-01T05:50:25.192Z,7.45
2022-10-01T05:51:27.342Z,6.45
2022-10-01T05:52:29.482Z,6.85
2022-10-01T05:53:32.340Z,7.33
2022-10-01T05:54:34.246Z,7.89
2022-10-01T05:55:36.450Z,15.19
2022-10-01T05:56:38.900Z,7.27
2022-10-01T05:57:40.867Z,7.18
2022-10-01T05:58:42.803Z,6.41
2022-10-01T05:59:44.712Z,6.19
2022-10-01T06:00:46.706Z,6.59
2022-10-01T06:01:49.063Z,5.89
2022-10-01T06:02:52.566Z,5.55
2022-10-01T06:03:54.607Z,5.43
2022-10-01T06:04:56.503Z,6.70
2022-10-01T06:05:58.500Z,5.71
2022-10-01T06:07:00.696Z,6.24
2022-10-01T06:08:05.253Z,5.03
2022-10-01T06:09:07.299Z,5.64
2022-10-01T06:10:09.649Z,5.45
2022-10-01T06:11:11.584Z,4.90
2022-10-01T06:12:17.663Z,4.53
2022-10-01T06:13:17.433Z,4.67
2022-10-01T06:14:19.380Z,4.99
2022-10-01T06:15:21.336Z,4.55
2022-10-01T06:16:23.683Z,5.71
2022-10-01T06:17:25.712Z,5.03
2022-10-01T06:18:27.633Z,4.80
2022-10-01T06:19:29.637Z,5.25
2022-10-01T06:20:31.740Z,4.70
2022-10-01T06:21:34.161Z,4.57
2022-10-01T06:22:36.589Z,5.71
2022-10-01T06:23:38.517Z,5.09
2022-10-01T06:24:40.367Z,4.59
2022-10-01T06:25:43.532Z,5.04
2022-10-01T06:26:45.536Z,4.92
2022-10-01T06:27:53.018Z,4.17
2022-10-01T06:28:55.116Z,4.57
2022-10-01T06:29:59.650Z,4.59
2022-10-01T06:31:02.870Z,5.04
2022-10-01T06:32:04.882Z,4.80
2022-10-01T06:33:10.410Z,5.40
2022-10-01T06:34:12.346Z,5.18
2022-10-01T06:35:14.324Z,4.05
2022-10-01T06:36:16.459Z,4.40
2022-10-01T06:37:18.577Z,4.27
2022-10-01T06:38:24.201Z,4.51
2022-10-01T06:39:26.425Z,3.77
2022-10-01T06:40:29.889Z,4.05
2022-10-01T06:41:33.047Z,4.29
2022-10-01T06:42:35.238Z,4.31
2022-10-01T06:43:37.247Z,4.15
2022-10-01T06:44:39.954Z,3.93
2022-10-01T06:45:41.877Z,3.81
2022-10-01T06:46:44.061Z,3.81
2022-10-01T06:47:49.754Z,3.95
2022-10-01T06:48:51.692Z,3.92
2022-10-01T06:49:53.610Z,3.39
2022-10-01T06:50:56.343Z,4.21
2022-10-01T06:51:58.255Z,3.77
2022-10-01T06:53:01.192Z,3.91
2022-10-01T06:54:03.314Z,4.04
2022-10-01T06:55:06.104Z,3.07
2022-10-01T06:56:08.577Z,3.34
2022-10-01T06:57:10.884Z,4.02
2022-10-01T06:58:18.500Z,3.59
2022-10-01T06:59:20.879Z,2.55
2022-10-01T07:00:23.601Z,2.95
2022-10-01T07:01:25.693Z,3.96
2022-10-01T07:02:29.745Z,2.93
2022-10-01T07:03:36.170Z,3.47
2022-10-01T07:04:38.189Z,3.06
2022-10-01T07:05:40.319Z,2.87
2022-10-01T07:06:42.330Z,2.85
2022-10-01T07:07:44.541Z,3.07
2022-10-01T07:08:49.447Z,2.70
2022-10-01T07:09:51.515Z,2.64
2022-10-01T07:10:59.319Z,2.54
2022-10-01T07:12:01.543Z,3.07
2022-10-01T07:13:15.318Z,2.99
2022-10-01T07:14:17.280Z,3.22
2022-10-01T07:15:21.357Z,3.77
2022-10-01T07:16:23.577Z,3.62
2022-10-01T07:17:26.057Z,3.19
2022-10-01T07:18:27.953Z,2.69
2022-10-01T07:19:31.174Z,3.10
2022-10-01T07:20:33.579Z,3.27
2022-10-01T07:21:36.242Z,3.07
2022-10-01T07:22:38.489Z,3.01
2022-10-01T07:23:40.569Z,2.97
2022-10-01T07:24:46.058Z,2.52
2022-10-01T07:25:47.954Z,2.76
2022-10-01T07:26:50.089Z,2.84
2022-10-01T07:28:01.590Z,3.06
2022-10-01T07:30:17.689Z,3.41
2022-10-01T07:31:20.645Z,2.90
2022-10-01T07:32:22.634Z,3.69
2022-10-01T07:33:24.724Z,2.88
2022-10-01T07:34:28.737Z,3.94
2022-10-01T07:35:30.878Z,3.39
2022-10-01T07:36:33.180Z,3.00
2022-10-01T07:37:35.065Z,3.80
2022-10-01T07:38:37.088Z,2.72
2022-10-01T07:39:39.064Z,2.63
2022-10-01T07:40:41.153Z,2.50
2022-10-01T07:41:43.127Z,1.79
2022-10-01T07:42:55.417Z,1.81
2022-10-01T07:43:57.449Z,2.18
2022-10-01T07:44:59.428Z,1.80
2022-10-01T07:46:01.583Z,2.36
2022-10-01T07:47:03.704Z,2.16
2022-10-01T07:48:07.985Z,2.69
2022-10-01T07:49:10.332Z,3.38
2022-10-01T07:50:14.763Z,2.53
2022-10-01T07:51:16.699Z,1.82
2022-10-01T07:52:18.850Z,1.35
2022-10-01T07:53:23.157Z,3.81
2022-10-01T07:54:25.831Z,2.76
2022-10-01T07:55:28.642Z,2.03
2022-10-01T07:56:31.246Z,1.55
2022-10-01T07:57:33.374Z,1.53
2022-10-01T07:58:35.264Z,1.55
2022-10-01T07:59:37.142Z,1.21
2022-10-01T08:00:39.333Z,1.33
2022-10-01T08:01:41.422Z,1.59
2022-10-01T08:02:48.436Z,1.84
2022-10-01T08:03:51.393Z,1.91
2022-10-01T08:04:53.406Z,1.64
2022-10-01T08:05:55.335Z,1.90
2022-10-01T08:06:58.290Z,1.76
2022-10-01T08:08:02.944Z,1.39
2022-10-01T08:09:05.773Z,1.65
2022-10-01T08:10:08.341Z,1.77
2022-10-01T08:11:11.308Z,2.39
2022-10-01T08:12:13.221Z,1.80
2022-10-01T08:13:16.964Z,1.63
2022-10-01T08:14:18.931Z,1.48
2022-10-01T08:15:20.801Z,1.48
2022-10-01T08:16:22.833Z,2.05
2022-10-01T08:17:29.366Z,1.54
2022-10-01T08:18:29.134Z,1.44
2022-10-01T08:19:31.127Z,1.39
2022-10-01T08:20:33.893Z,1.23
2022-10-01T08:21:36.587Z,1.44
2022-10-01T08:22:42.122Z,1.64
2022-10-01T08:23:43.170Z,1.51
2022-10-01T08:24:45.275Z,1.18
2022-10-01T08:25:47.176Z,1.59
2022-10-01T08:26:53.740Z,1.17
2022-10-01T08:27:55.737Z,1.31
2022-10-01T08:28:58.332Z,1.71
2022-10-01T08:30:00.287Z,1.25
2022-10-01T08:31:06.665Z,1.60
2022-10-01T08:32:09.823Z,1.12
2022-10-01T08:33:13.600Z,1.11
2022-10-01T08:34:15.790Z,1.44
2022-10-01T08:35:17.691Z,1.34
2022-10-01T08:36:20.152Z,1.22
2022-10-01T08:37:28.254Z,1.80
2022-10-01T08:38:30.306Z,1.54
2022-10-01T08:39:32.183Z,1.70
2022-10-01T08:40:37.322Z,1.30
2022-10-01T08:42:12.096Z,1.27
2022-10-01T08:43:26.564Z,1.09
2022-10-01T08:44:32.299Z,1.16
2022-10-01T08:47:08.969Z,1.76
2022-10-01T08:48:31.522Z,1.58
2022-10-01T08:49:52.462Z,1.27
2022-10-01T08:51:13.469Z,1.46
2022-10-01T08:52:21.821Z,1.41
2022-10-01T08:53:39.305Z,2.35
2022-10-01T08:54:47.771Z,2.21
2022-10-01T08:55:51.485Z,5.89
2022-10-01T08:56:56.967Z,1.94
2022-10-01T08:58:01.693Z,1.79
2022-10-01T09:00:20.671Z,1.23
2022-10-01T09:01:24.392Z,1.59
2022-10-01T09:02:38.687Z,1.67
2022-10-01T09:03:42.613Z,1.80
2022-10-01T09:04:45.986Z,1.74
2022-10-01T09:06:01.237Z,1.62
2022-10-01T09:07:19.254Z,1.67
2022-10-01T09:08:41.798Z,0.97
2022-10-01T09:09:47.503Z,1.43
2022-10-01T09:10:56.346Z,1.28
2022-10-01T09:12:10.906Z,1.52
2022-10-01T09:13:45.782Z,1.04
2022-10-01T09:14:57.039Z,1.27
2022-10-01T09:16:32.220Z,0.90
2022-10-01T09:17:43.532Z,0.81
2022-10-01T09:19:10.496Z,0.89
2022-10-01T09:20:28.783Z,1.14
2022-10-01T09:21:56.995Z,0.87
2022-10-01T09:23:05.735Z,0.83
2022-10-01T09:24:14.097Z,0.83
2022-10-01T09:25:26.869Z,0.80
2022-10-01T09:26:29.178Z,0.81
2022-10-01T09:27:33.024Z,0.62
2022-10-01T09:28:37.143Z,0.76
2022-10-01T09:29:43.175Z,0.76
2022-10-01T09:30:51.862Z,0.92
2022-10-01T09:31:56.427Z,0.81
2022-10-01T09:33:05.165Z,0.62
2022-10-01T09:34:15.665Z,1.31
2022-10-01T09:35:33.655Z,0.72
2022-10-01T09:36:59.002Z,0.69
2022-10-01T09:38:04.712Z,0.63
2022-10-01T09:39:13.546Z,0.93
2022-10-01T09:40:23.185Z,0.73
2022-10-01T09:41:25.378Z,1.02
2022-10-01T09:42:29.386Z,0.97
2022-10-01T09:43:34.524Z,1.08
2022-10-01T09:44:36.647Z,0.86
2022-10-01T09:45:39.374Z,0.71
2022-10-01T09:46:41.831Z,0.79
2022-10-01T09:47:47.455Z,1.12
2022-10-01T09:49:01.878Z,0.84
2022-10-01T09:50:05.848Z,1.37
2022-10-01T09:51:14.323Z,0.76
2022-10-01T09:52:25.992Z,0.87
2022-10-01T09:53:40.385Z,1.76
2022-10-01T09:54:55.080Z,1.39
2022-10-01T09:56:01.079Z,1.04
2022-10-01T09:57:16.000Z,1.24
2022-10-01T09:58:21.982Z,1.73
2022-10-01T09:59:30.469Z,1.03
2022-10-01T10:00:33.255Z,1.06
2022-10-01T10:01:39.347Z,1.47
2022-10-01T10:02:48.977Z,0.93
2022-10-01T10:03:56.658Z,1.01
2022-10-01T10:06:14.791Z,0.80
2022-10-01T10:07:18.475Z,0.85
2022-10-01T10:08:38.491Z,0.92
2022-10-01T10:09:41.295Z,0.69
2022-10-01T10:12:28.538Z,1.01
2022-10-01T10:13:34.200Z,0.72
2022-10-01T10:14:38.815Z,0.51
2022-10-01T10:15:44.561Z,0.73
2022-10-01T10:16:48.195Z,0.59
2022-10-01T10:17:50.509Z,0.84
2022-10-01T10:18:58.933Z,0.59
2022-10-01T10:20:03.132Z,0.77
2022-10-01T10:21:08.709Z,0.92
2022-10-01T10:22:14.514Z,0.68
2022-10-01T10:23:19.892Z,0.47
2022-10-01T10:24:31.765Z,1.00
2022-10-01T10:25:34.376Z,0.54
2022-10-01T10:26:39.481Z,0.76
2022-10-01T10:27:53.756Z,0.77
2022-10-01T10:28:58.539Z,0.73
2022-10-01T10:30:06.411Z,0.79
2022-10-01T10:32:25.368Z,0.60
2022-10-01T10:33:27.721Z,0.49
2022-10-01T10:34:38.893Z,0.74
2022-10-01T10:35:41.023Z,0.61
2022-10-01T10:36:44.947Z,0.49
2022-10-01T10:37:50.383Z,0.79
2022-10-01T10:38:52.510Z,0.58
2022-10-01T10:39:55.576Z,0.75
2022-10-01T10:40:58.107Z,0.59
2022-10-01T10:42:02.314Z,0.85
2022-10-01T10:43:04.251Z,0.70
2022-10-01T10:44:07.322Z,0.67
2022-10-01T10:45:13.185Z,0.80
2022-10-01T10:46:25.283Z,0.73
2022-10-01T10:47:27.742Z,0.51
2022-10-01T10:48:33.623Z,0.82
2022-10-01T10:49:39.354Z,0.49
2022-10-01T10:50:43.898Z,0.87
2022-10-01T10:51:50.883Z,0.80
2022-10-01T10:52:53.106Z,0.76
2022-10-01T10:53:55.088Z,0.82
2022-10-01T10:54:59.177Z,1.07
2022-10-01T10:56:04.664Z,1.07
2022-10-01T10:57:28.946Z,0.61
2022-10-01T10:58:33.543Z,0.69
2022-10-01T10:59:35.808Z,1.24
2022-10-01T11:00:47.333Z,0.73
2022-10-01T11:01:49.802Z,0.72
2022-10-01T11:02:58.169Z,0.89
2022-10-01T11:04:01.228Z,0.56
2022-10-01T11:05:07.078Z,0.60
2022-10-01T11:06:11.935Z,0.68
2022-10-01T11:08:33.659Z,0.86
2022-10-01T11:09:42.437Z,0.83
2022-10-01T11:11:03.761Z,0.82
2022-10-01T11:12:18.760Z,0.89
2022-10-01T11:13:51.575Z,0.71
2022-10-01T11:14:57.254Z,0.94
2022-10-01T11:16:25.983Z,1.31
2022-10-01T11:17:48.701Z,1.24
2022-10-01T11:19:03.230Z,1.32
2022-10-01T11:20:19.871Z,1.13
2022-10-01T11:21:28.718Z,0.96
2022-10-01T11:22:49.550Z,1.33
2022-10-01T11:24:04.575Z,0.81
2022-10-01T11:25:25.183Z,0.79
2022-10-01T11:26:31.108Z,0.73
2022-10-01T11:27:58.317Z,0.53
2022-10-01T11:29:06.912Z,0.99
2022-10-01T11:30:25.049Z,1.00
2022-10-01T11:31:30.898Z,1.27
2022-10-01T11:32:48.891Z,1.22
2022-10-01T11:34:13.198Z,1.33
2022-10-01T11:35:22.083Z,0.93
2022-10-01T11:36:28.151Z,1.09
2022-10-01T11:37:53.638Z,1.19
2022-10-01T11:39:08.673Z,0.99
2022-10-01T11:40:30.308Z,1.12
2022-10-01T11:41:38.760Z,1.33
2022-10-01T11:42:43.266Z,1.61
2022-10-01T11:43:52.241Z,0.74
2022-10-01T11:45:00.635Z,1.13
2022-10-01T11:47:22.710Z,0.87
2022-10-01T11:48:40.617Z,1.34
2022-10-01T11:49:52.371Z,1.06
2022-10-01T11:50:57.967Z,1.13
2022-10-01T11:52:23.769Z,0.88
2022-10-01T11:53:32.453Z,0.99
2022-10-01T11:54:38.064Z,1.04
2022-10-01T11:55:55.606Z,1.10
2022-10-01T11:56:58.876Z,1.13
2022-10-01T11:58:19.585Z,0.74
2022-10-01T11:59:28.070Z,0.90
2022-10-01T12:00:30.460Z,0.80
2022-10-01T12:01:51.101Z,0.82
2022-10-01T12:02:56.975Z,0.96
2022-10-01T12:04:05.203Z,1.02
2022-10-01T12:05:13.943Z,0.86
2022-10-01T12:06:21.005Z,1.00
2022-10-01T12:07:25.535Z,1.11
2022-10-01T12:08:31.376Z,1.08
2022-10-01T12:09:40.250Z,1.23
2022-10-01T12:11:15.995Z,1.38
2022-10-01T12:12:37.073Z,0.87
2022-10-01T12:13:42.953Z,0.87
2022-10-01T12:15:06.994Z,1.19
2022-10-01T12:16:17.014Z,1.05
2022-10-01T12:17:35.031Z,0.74
2022-10-01T12:18:43.767Z,1.43
2022-10-01T12:21:44.925Z,1.26
2022-10-01T12:22:48.775Z,1.42
2022-10-01T12:23:57.189Z,1.53
2022-10-01T12:24:59.375Z,1.77
2022-10-01T12:26:09.910Z,1.25
2022-10-01T12:27:30.510Z,1.04
2022-10-01T12:40:22.761Z,1.45
2022-10-01T12:41:46.959Z,1.87
2022-10-01T12:43:15.740Z,1.30
2022-10-01T12:44:36.263Z,1.59
2022-10-01T12:45:50.745Z,1.63
2022-10-01T12:47:14.082Z,1.86
2022-10-01T12:48:43.140Z,1.43
2022-10-01T12:50:04.405Z,1.56
2022-10-01T12:51:18.686Z,1.27
2022-10-01T12:54:01.852Z,1.25
2022-10-01T12:55:16.015Z,1.63
2022-10-01T12:56:22.152Z,1.48
2022-10-01T12:57:46.258Z,2.73
2022-10-01T12:59:09.803Z,1.61
2022-10-01T13:00:23.735Z,1.47
2022-10-01T13:01:58.690Z,1.56
2022-10-01T13:03:14.022Z,1.26
2022-10-01T13:04:36.494Z,1.64
2022-10-01T13:06:09.844Z,2.04
2022-10-01T13:07:18.566Z,2.24
2022-10-01T13:08:58.103Z,1.27
2022-10-01T13:10:16.119Z,1.28
2022-10-01T13:11:39.475Z,1.69
2022-10-01T13:13:06.115Z,1.53
2022-10-01T13:14:14.799Z,1.38
2022-10-01T13:15:20.507Z,1.57
2022-10-01T13:16:26.346Z,1.76
2022-10-01T13:17:44.391Z,1.89
2022-10-01T13:19:09.955Z,2.03
2022-10-01T13:20:42.278Z,1.61
2022-10-01T13:22:18.811Z,1.38
2022-10-01T13:23:41.511Z,1.75
2022-10-01T13:25:02.374Z,1.37
2022-10-01T13:26:29.858Z,1.77
2022-10-01T13:27:49.296Z,2.34
2022-10-01T13:29:06.898Z,2.60
2022-10-01T13:30:21.600Z,1.66
2022-10-01T13:32:00.268Z,2.02
2022-10-01T13:33:02.262Z,2.10
2022-10-01T13:34:24.327Z,2.25
2022-10-01T13:35:43.260Z,2.04
2022-10-01T13:36:45.285Z,2.68
2022-10-01T13:37:49.307Z,2.93
2022-10-01T13:38:51.178Z,3.01
2022-10-01T13:39:53.178Z,3.01
2022-10-01T13:40:58.489Z,2.70
2022-10-01T13:42:04.191Z,3.27
2022-10-01T13:43:21.467Z,3.13
2022-10-01T13:44:30.099Z,3.44
2022-10-01T13:45:40.817Z,3.02
2022-10-01T13:47:06.136Z,3.94
2022-10-01T13:48:24.355Z,2.96
2022-10-01T13:49:30.039Z,2.77
2022-10-01T13:50:32.447Z,2.69
2022-10-01T13:51:38.570Z,2.85
2022-10-01T13:52:40.748Z,3.17
2022-10-01T13:53:46.396Z,3.54
2022-10-01T13:56:06.784Z,4.12
2022-10-01T13:57:11.792Z,4.21
2022-10-01T13:58:35.482Z,4.09
2022-10-01T13:59:38.012Z,4.19
2022-10-01T14:00:52.244Z,4.41
2022-10-01T14:01:54.220Z,4.29
2022-10-01T14:03:03.070Z,2.57
2022-10-01T14:04:39.386Z,2.52
2022-10-01T14:05:43.222Z,3.18
2022-10-01T14:06:52.475Z,3.65
2022-10-01T14:08:25.614Z,3.79
2022-10-01T14:09:46.095Z,3.78
2022-10-01T14:10:57.879Z,4.05
2022-10-01T14:12:06.932Z,3.62
2022-10-01T14:13:10.867Z,3.97
2022-10-01T14:14:22.526Z,3.74
2022-10-01T14:15:46.159Z,4.42
2022-10-01T14:16:49.062Z,4.95
2022-10-01T14:17:53.918Z,4.81
2022-10-01T14:18:56.414Z,4.92
2022-10-01T14:20:00.304Z,5.35
2022-10-01T14:21:13.688Z,6.13
2022-10-01T14:23:42.881Z,5.00
2022-10-01T14:25:10.069Z,4.82
2022-10-01T14:26:34.025Z,4.18
2022-10-01T14:27:40.007Z,3.94
2022-10-01T14:30:17.371Z,3.92
2022-10-01T14:31:41.260Z,4.26
2022-10-01T14:32:53.121Z,3.91
2022-10-01T14:34:16.042Z,4.01
2022-10-01T14:36:46.792Z,4.18
2022-10-01T14:37:50.467Z,3.93
2022-10-01T14:39:04.163Z,3.89
2022-10-01T14:40:15.755Z,4.14
2022-10-01T14:41:23.703Z,4.13
2022-10-01T14:42:25.756Z,3.99
2022-10-01T14:43:30.446Z,4.29
2022-10-01T14:44:44.277Z,3.90
2022-10-01T14:46:04.334Z,4.13
2022-10-01T14:47:21.856Z,3.52
2022-10-01T14:48:26.730Z,3.94
2022-10-01T14:49:31.607Z,4.28
2022-10-01T14:50:36.623Z,3.92
2022-10-01T14:51:42.457Z,3.97
2022-10-01T14:52:47.998Z,3.99
2022-10-01T14:53:51.722Z,3.74
2022-10-01T14:55:12.301Z,3.75
2022-10-01T14:56:15.743Z,3.45
2022-10-01T14:57:39.923Z,3.34
2022-10-01T14:58:45.591Z,3.38
2022-10-01T14:59:48.381Z,3.08
2022-10-01T15:00:52.004Z,2.83
2022-10-01T15:01:57.279Z,2.96
2022-10-01T15:03:11.587Z,3.13
2022-10-01T15:04:16.485Z,3.09
2022-10-01T15:05:27.848Z,2.92
2022-10-01T15:06:30.283Z,2.98
2022-10-01T15:07:34.539Z,2.37
2022-10-01T15:08:42.967Z,2.88
2022-10-01T15:09:45.843Z,2.58
2022-10-01T15:10:51.454Z,2.87
2022-10-01T15:11:53.641Z,2.76
2022-10-01T15:13:01.010Z,2.87
2022-10-01T15:14:09.458Z,3.04
2022-10-01T15:15:21.322Z,2.96
2022-10-01T15:16:28.957Z,3.73
2022-10-01T15:17:31.303Z,3.58
2022-10-01T15:18:34.096Z,4.28
2022-10-01T15:19:39.730Z,4.06
2022-10-01T15:21:00.098Z,4.33